Terminal Aerodrome Forecast
Issued by NWS Wakefield, VA

Home | Current Version | Previous Version | Text Only | Print | Product List | Glossary On
Versions: 1 2 3 4 5 6 7 8 9 10 11 12 13 14 15 16
077
FTUS41 KAKQ 250520
TAFORF
TAF
KORF 250520Z 2506/2606 22012G20KT P6SM SCT250
     FM251100 22008KT P6SM BKN250
     FM251600 22010G17KT P6SM BKN250=

USA.gov is the U.S. government's official web portal to all federal, state and local government web resources and services.